Time;durP1;ratioP1;P1;durP2;ratioP2;P2;SDS_P1;SDS_P2;PMS_P1;PMS_P2;Temp;Humidity;BMP_temperature;BMP_pressure;BME280_temperature;BME280_humidity;BME280_pressure;Samples;Min_cycle;Max_cycle;Signal;HPM_P1;HPM_P2
2022/04/28 00:02:00;;;;;;;9.40;8.70;;;;;;;4.89;100.00;97899.47;5060187;28;20400;-55
2022/04/28 00:04:28;;;;;;;9.33;8.53;;;;;;;4.92;100.00;97892.19;5025807;28;20210;-51
2022/04/28 00:06:58;;;;;;;9.90;8.90;;;;;;;4.97;100.00;97894.41;5038159;28;20199;-58
2022/04/28 00:09:26;;;;;;;8.93;8.17;;;;;;;4.97;100.00;97896.19;5051535;28;20222;-54
2022/04/28 00:11:54;;;;;;;9.13;8.33;;;;;;;4.99;100.00;97899.53;5047836;28;20225;-55
2022/04/28 00:14:22;;;;;;;9.40;8.60;;;;;;;5.04;100.00;97889.47;5049640;28;20212;-54
2022/04/28 00:16:50;;;;;;;9.77;8.57;;;;;;;5.01;100.00;97887.09;5062254;28;20227;-55
2022/04/28 00:19:18;;;;;;;10.23;9.23;;;;;;;4.97;100.00;97896.19;5064918;28;20222;-51
2022/04/28 00:21:46;;;;;;;10.63;9.73;;;;;;;4.90;100.00;97891.47;5024154;28;20225;-57
2022/04/28 00:24:15;;;;;;;10.07;9.27;;;;;;;4.86;100.00;97887.44;5058578;28;20337;-53
2022/04/28 00:26:43;;;;;;;9.27;8.57;;;;;;;4.77;100.00;97888.25;5038337;28;20235;-53
2022/04/28 00:29:11;;;;;;;10.53;9.63;;;;;;;4.71;100.00;97886.94;5053516;28;20230;-52
2022/04/28 00:31:39;;;;;;;9.03;8.40;;;;;;;4.63;100.00;97882.34;5068949;28;20202;-56
2022/04/28 00:34:08;;;;;;;9.30;8.57;;;;;;;4.61;100.00;97892.13;5069686;28;20203;-52
2022/04/28 00:36:36;;;;;;;9.67;8.87;;;;;;;4.54;100.00;97891.00;5017279;28;20502;-48
2022/04/28 00:39:04;;;;;;;9.93;8.93;;;;;;;4.43;100.00;97891.06;5051455;28;20230;-56
2022/04/28 00:41:33;;;;;;;8.97;8.17;;;;;;;4.34;100.00;97897.91;5038706;28;20888;-54
2022/04/28 00:44:01;;;;;;;8.30;7.70;;;;;;;4.23;100.00;97901.41;5054142;28;20213;-52
2022/04/28 00:46:29;;;;;;;9.23;8.33;;;;;;;4.24;100.00;97894.38;5064770;28;20394;-53
2022/04/28 00:51:43;;;;;;;8.00;7.40;;;;;;;3.99;100.00;97901.63;5027434;28;20719;-55
2022/04/28 00:54:11;;;;;;;9.23;8.13;;;;;;;3.87;100.00;97904.28;5049689;28;20229;-54
2022/04/28 00:56:41;;;;;;;9.13;8.33;;;;;;;3.80;100.00;97899.66;5035475;28;20237;-56
2022/04/28 00:59:09;;;;;;;9.07;8.37;;;;;;;3.72;100.00;97902.88;5061951;28;20232;-56
2022/04/28 01:01:37;;;;;;;8.77;8.07;;;;;;;3.63;100.00;97899.22;5057571;28;20416;-55
2022/04/28 01:04:06;;;;;;;9.67;8.87;;;;;;;3.59;100.00;97893.38;5062268;28;20689;-53
2022/04/28 01:06:34;;;;;;;9.90;9.00;;;;;;;3.62;100.00;97889.69;5026643;28;20202;-52
2022/04/28 01:09:02;;;;;;;8.53;7.83;;;;;;;3.50;100.00;97895.88;5055421;28;20234;-54
2022/04/28 01:11:31;;;;;;;8.97;8.17;;;;;;;3.45;100.00;97898.91;5048842;28;20393;-49
2022/04/28 01:14:01;;;;;;;9.23;8.47;;;;;;;3.39;100.00;97897.56;5053708;28;20210;-54
2022/04/28 01:16:29;;;;;;;8.60;7.90;;;;;;;3.32;100.00;97896.41;5049318;28;20252;-53
2022/04/28 01:18:58;;;;;;;9.57;8.77;;;;;;;3.28;100.00;97893.19;5068109;28;20223;-55
2022/04/28 01:21:29;;;;;;;9.87;8.87;;;;;;;3.22;100.00;97891.03;5024952;28;20415;-55
2022/04/28 01:23:57;;;;;;;9.20;8.40;;;;;;;3.09;100.00;97890.34;5051344;28;20218;-53
2022/04/28 01:26:27;;;;;;;9.20;8.40;;;;;;;3.06;100.00;97898.44;5048257;28;20236;-52
2022/04/28 01:28:55;;;;;;;9.27;8.50;;;;;;;3.14;100.00;97901.28;5051150;28;20233;-49
2022/04/28 01:31:23;;;;;;;10.63;9.40;;;;;;;3.10;100.00;97905.09;5049659;28;20252;-52
2022/04/28 01:33:52;;;;;;;9.87;9.07;;;;;;;3.03;100.00;97905.56;5068866;28;20566;-51
2022/04/28 01:36:20;;;;;;;10.33;9.33;;;;;;;2.98;100.00;97907.69;5024252;28;21081;-49
2022/04/28 01:38:49;;;;;;;9.80;8.90;;;;;;;2.89;100.00;97904.03;5062677;28;20206;-47
2022/04/28 01:41:17;;;;;;;9.50;8.70;;;;;;;2.93;100.00;97901.97;5033526;28;20206;-52
2022/04/28 01:43:46;;;;;;;11.90;9.90;;;;;;;2.99;100.00;97906.75;5049533;28;20217;-53
2022/04/28 01:46:14;;;;;;;11.40;9.60;;;;;;;2.97;100.00;97906.03;5054501;28;20645;-57
2022/04/28 01:48:42;;;;;;;10.20;9.00;;;;;;;2.95;100.00;97901.88;5065648;28;20230;-53
2022/04/28 01:56:54;;;;;;;11.97;7.90;;;;;;;2.85;100.00;97907.81;4999576;28;20383;-52
2022/04/28 01:59:22;;;;;;;9.13;8.20;;;;;;;2.86;100.00;97909.50;4976815;28;20333;-54
2022/04/28 02:01:50;;;;;;;7.80;6.97;;;;;;;2.83;100.00;97903.66;4988207;28;20668;-54
2022/04/28 02:04:19;;;;;;;8.43;7.73;;;;;;;2.73;100.00;97904.34;4997260;28;20200;-57
2022/04/28 02:06:47;;;;;;;8.60;7.90;;;;;;;2.68;100.00;97905.63;5001786;28;20308;-55
2022/04/28 02:09:16;;;;;;;7.97;6.93;;;;;;;2.65;100.00;97911.09;4957439;28;20275;-56
2022/04/28 02:11:44;;;;;;;7.87;7.27;;;;;;;2.57;100.00;97903.81;4985882;28;20221;-53
2022/04/28 02:14:12;;;;;;;8.67;7.97;;;;;;;2.57;100.00;97907.28;4981762;28;20234;-53
2022/04/28 02:16:40;;;;;;;9.00;8.10;;;;;;;2.57;100.00;97904.69;4984176;28;20224;-46
2022/04/28 02:19:08;;;;;;;8.30;7.60;;;;;;;2.58;100.00;97908.09;5003466;28;20244;-49
2022/04/28 02:21:36;;;;;;;9.00;8.30;;;;;;;2.63;100.00;97916.44;4996874;28;20208;-53
2022/04/28 02:24:05;;;;;;;9.57;8.67;;;;;;;2.55;100.00;97911.81;4963933;28;20243;-53
2022/04/28 02:26:34;;;;;;;9.07;8.33;;;;;;;2.46;100.00;97907.25;4983084;28;20228;-54
2022/04/28 02:29:02;;;;;;;8.80;8.00;;;;;;;2.41;100.00;97910.22;5033358;28;20252;-53
2022/04/28 02:31:30;;;;;;;9.60;8.70;;;;;;;2.32;100.00;97910.91;5036950;28;20206;-53
2022/04/28 02:33:58;;;;;;;9.83;9.03;;;;;;;2.30;100.00;97910.19;5060790;28;20210;-50
2022/04/28 02:36:27;;;;;;;9.43;8.67;;;;;;;2.30;100.00;97913.63;5060120;28;20722;-54
2022/04/28 02:38:55;;;;;;;19.27;9.77;;;;;;;2.34;100.00;97908.16;5064714;28;20222;-52
2022/04/28 02:41:23;;;;;;;10.77;9.63;;;;;;;2.29;100.00;97905.91;5025002;28;20214;-54
2022/04/28 02:44:30;;;;;;;23.17;10.50;;;;;;;2.34;100.00;97900.31;5038631;28;20229;-55
2022/04/28 02:46:58;;;;;;;27.63;10.43;;;;;;;2.37;100.00;97903.56;5030350;28;20267;-53
2022/04/28 02:49:26;;;;;;;53.07;10.30;;;;;;;2.39;100.00;97904.28;5056233;28;20394;-56
2022/04/28 02:51:54;;;;;;;62.67;9.97;;;;;;;2.40;100.00;97905.94;5057487;28;20289;-50
2022/04/28 02:54:22;;;;;;;41.43;9.80;;;;;;;2.38;100.00;97907.84;5060158;28;20584;-55
2022/04/28 02:56:50;;;;;;;55.53;10.67;;;;;;;2.42;100.00;97911.03;5016011;28;20230;-52
2022/04/28 02:59:18;;;;;;;39.53;9.00;;;;;;;2.39;100.00;97901.66;5024988;27;20661;-54
2022/04/28 03:01:48;;;;;;;37.23;8.83;;;;;;;2.39;100.00;97903.44;5043781;28;20483;-53
2022/04/28 03:04:16;;;;;;;28.97;8.77;;;;;;;2.49;100.00;97912.28;5022209;28;20310;-53
2022/04/28 03:12:15;;;;;;;20.70;8.60;;;;;;;2.39;100.00;97908.66;5017054;28;20214;-53
2022/04/28 03:14:43;;;;;;;22.87;9.93;;;;;;;2.37;100.00;97919.25;5050150;28;20591;-53
2022/04/28 03:17:13;;;;;;;27.37;9.57;;;;;;;2.31;100.00;97917.91;5039420;28;20225;-55
2022/04/28 03:19:41;;;;;;;11.90;10.75;;;;;;;2.40;100.00;97919.00;5022017;28;20449;-51
2022/04/28 03:22:09;;;;;;;10.07;7.93;;;;;;;2.40;100.00;97918.16;5058399;28;20289;-55
2022/04/28 03:24:37;;;;;;;13.73;7.80;;;;;;;2.32;100.00;97916.16;5070036;28;20213;-53
2022/04/28 03:27:07;;;;;;;18.27;7.60;;;;;;;2.36;100.00;97919.34;5029326;28;20271;-57
2022/04/28 03:29:37;;;;;;;39.20;8.47;;;;;;;2.27;100.00;97926.09;5056703;28;20223;-57
2022/04/28 03:32:08;;;;;;;24.00;7.83;;;;;;;2.29;100.00;97916.38;5050224;28;20297;-57
2022/04/28 03:34:38;;;;;;;32.77;7.70;;;;;;;2.31;100.00;97922.31;5024284;28;20214;-53
2022/04/28 03:37:06;;;;;;;12.70;9.50;;;;;;;2.51;100.00;97923.44;5042746;28;20481;-51
2022/04/28 03:39:37;;;;;;;47.27;10.03;;;;;;;2.46;100.00;97929.03;5066066;28;20712;-50
2022/04/28 03:42:06;;;;;;;24.17;9.20;;;;;;;2.42;100.00;97922.34;5026953;28;20567;-56
2022/04/28 03:44:34;;;;;;;20.97;8.80;;;;;;;2.39;100.00;97930.44;5066576;28;20335;-52
2022/04/28 03:47:04;;;;;;;37.03;8.37;;;;;;;2.43;100.00;97933.63;5047877;28;20218;-57
2022/04/28 03:49:32;;;;;;;27.90;9.23;;;;;;;2.33;100.00;97940.50;5021658;28;20230;-51
2022/04/28 03:52:01;;;;;;;38.83;8.07;;;;;;;2.38;100.00;97939.22;5040221;28;20602;-54
2022/04/28 03:54:29;;;;;;;21.77;9.60;;;;;;;2.41;100.00;97941.59;5060393;28;20806;-51
2022/04/28 03:57:00;;;;;;;11.73;7.30;;;;;;;2.41;100.00;97935.53;5047742;28;20694;-53
2022/04/28 03:59:28;;;;;;;22.95;8.30;;;;;;;2.39;100.00;97943.50;5047308;28;20448;-52
2022/04/28 04:01:57;;;;;;;31.27;8.00;;;;;;;2.35;100.00;97943.84;5049197;28;20210;-53
2022/04/28 04:04:25;;;;;;;27.77;7.70;;;;;;;2.22;100.00;97949.97;5041059;28;20983;-52
2022/04/28 04:06:53;;;;;;;28.07;7.80;;;;;;;2.12;100.00;97951.59;5043144;28;20700;-54
2022/04/28 04:09:23;;;;;;;30.03;8.10;;;;;;;2.01;100.00;97961.03;5060597;28;20330;-52
2022/04/28 04:11:51;;;;;;;12.43;7.10;;;;;;;2.15;100.00;97959.22;5063629;28;20594;-53
2022/04/28 04:14:19;;;;;;;8.10;7.47;;;;;;;2.23;100.00;97962.09;5013743;28;20359;-55
2022/04/28 04:16:47;;;;;;;18.93;7.90;;;;;;;1.98;100.00;97956.03;5066430;28;20236;-52
2022/04/28 04:19:16;;;;;;;11.73;8.00;;;;;;;2.03;100.00;97961.75;5027790;28;20995;-52
2022/04/28 04:21:44;;;;;;;8.57;7.87;;;;;;;2.23;100.00;97967.34;5023878;28;20716;-55
2022/04/28 04:24:12;;;;;;;24.90;8.37;;;;;;;2.10;100.00;97969.19;5047655;28;20206;-56
2022/04/28 04:26:42;;;;;;;17.03;8.10;;;;;;;2.21;100.00;97968.38;5067404;28;20372;-55
2022/04/28 04:29:12;;;;;;;7.83;7.03;;;;;;;2.28;100.00;97974.84;4996657;28;21362;-54
2022/04/28 04:34:25;;;;;;;11.17;7.50;;;;;;;2.13;100.00;97974.19;5016781;28;20245;-52
2022/04/28 04:36:53;;;;;;;9.23;7.90;;;;;;;2.06;100.00;97979.00;5044811;28;20214;-55
2022/04/28 04:39:21;;;;;;;17.20;7.63;;;;;;;2.13;100.00;97977.63;5041584;28;20234;-54
2022/04/28 04:41:51;;;;;;;23.53;8.07;;;;;;;2.08;100.00;97984.09;5059100;28;20642;-56
2022/04/28 04:44:19;;;;;;;17.77;7.30;;;;;;;2.30;100.00;97991.25;4999954;28;20244;-55
2022/04/28 04:46:47;;;;;;;8.50;7.60;;;;;;;2.43;100.00;97978.94;5064128;28;20198;-56
2022/04/28 04:49:15;;;;;;;8.00;7.40;;;;;;;2.49;100.00;97984.66;5060716;28;20710;-53
2022/04/28 04:51:43;;;;;;;7.50;6.63;;;;;;;2.54;100.00;97993.00;5024839;28;20206;-56
2022/04/28 04:54:12;;;;;;;17.00;7.60;;;;;;;2.46;100.00;97998.78;5042730;28;20206;-52
2022/04/28 04:56:40;;;;;;;34.03;8.20;;;;;;;2.49;100.00;98000.38;5063368;28;20229;-53
2022/04/28 04:59:10;;;;;;;7.97;7.27;;;;;;;2.60;100.00;97993.41;5062823;28;20510;-50
2022/04/28 05:01:38;;;;;;;10.47;7.33;;;;;;;2.50;100.00;98004.66;5019250;28;20222;-54
2022/04/28 05:04:06;;;;;;;11.37;7.17;;;;;;;2.43;100.00;98001.63;5059307;28;20241;-54
2022/04/28 05:06:34;;;;;;;7.77;7.03;;;;;;;2.53;100.00;98001.81;5052660;28;20301;-53
2022/04/28 05:09:02;;;;;;;8.30;7.70;;;;;;;2.67;100.00;98001.66;5023353;28;20230;-47
2022/04/28 05:11:31;;;;;;;15.60;7.37;;;;;;;2.69;100.00;98002.34;5069032;28;20210;-53
2022/04/28 05:13:59;;;;;;;9.43;6.80;;;;;;;2.75;100.00;98001.06;5039003;28;21115;-52
2022/04/28 05:16:28;;;;;;;16.37;7.37;;;;;;;2.76;100.00;98005.34;5021171;28;20602;-54
2022/04/28 05:18:56;;;;;;;11.50;7.63;;;;;;;2.80;100.00;98004.16;5065522;28;20866;-53
2022/04/28 05:21:24;;;;;;;12.95;9.00;;;;;;;2.69;100.00;97999.75;5048709;28;20452;-51
2022/04/28 05:23:53;;;;;;;9.40;8.17;;;;;;;2.60;100.00;98003.88;5023902;28;20220;-55
2022/04/28 05:26:25;;;;;;;11.98;10.55;;;;;;;2.73;100.00;98009.03;5052557;28;20535;-54
2022/04/28 05:28:53;;;;;;;9.77;8.83;;;;;;;2.88;100.00;98019.28;5062508;28;20230;-51
2022/04/28 05:31:21;;;;;;;11.15;10.00;;;;;;;2.98;100.00;98014.22;4995155;28;20573;-51
2022/04/28 05:33:51;;;;;;;10.70;9.68;;;;;;;3.04;100.00;98016.38;5068670;28;20458;-57
2022/04/28 05:36:20;;;;;;;9.03;8.27;;;;;;;3.18;100.00;98020.56;5045860;28;20638;-52
2022/04/28 05:38:48;;;;;;;14.17;8.67;;;;;;;3.44;100.00;98015.13;5045942;28;20309;-53
2022/04/28 05:41:16;;;;;;;10.13;9.30;;;;;;;3.52;100.00;98015.34;5026027;28;20826;-51
2022/04/28 05:46:30;;;;;;;11.48;8.55;;;;;;;3.74;100.00;98026.78;4996940;28;20580;-53
2022/04/28 05:49:00;;;;;;;9.80;8.57;;;;;;;3.99;100.00;98024.88;5065908;28;20444;-55
2022/04/28 05:51:28;;;;;;;8.73;7.70;;;;;;;4.07;100.00;98024.25;5041798;28;20395;-51
2022/04/28 05:53:57;;;;;;;9.52;8.63;;;;;;;4.21;100.00;98021.34;5046195;28;20455;-49
2022/04/28 05:56:25;;;;;;;9.27;8.37;;;;;;;4.33;100.00;98030.03;5041639;28;20390;-53
2022/04/28 05:58:55;;;;;;;10.80;9.07;;;;;;;4.15;100.00;98025.28;5069218;28;20480;-51
2022/04/28 06:01:24;;;;;;;10.02;9.15;;;;;;;4.37;100.00;98035.88;5046915;28;20697;-50
2022/04/28 06:03:52;;;;;;;9.85;9.07;;;;;;;4.35;100.00;98038.63;5016756;28;20453;-48
2022/04/28 06:06:22;;;;;;;9.27;8.37;;;;;;;4.30;100.00;98032.91;5048009;28;20625;-52
2022/04/28 06:08:50;;;;;;;8.50;7.73;;;;;;;4.53;100.00;98038.06;5047718;28;20787;-53
2022/04/28 06:11:18;;;;;;;8.90;8.23;;;;;;;4.51;100.00;98037.38;5043090;28;20232;-51
2022/04/28 06:13:46;;;;;;;10.40;9.60;;;;;;;4.62;100.00;98042.59;5058930;28;20445;-50
2022/04/28 06:16:14;;;;;;;9.45;8.75;;;;;;;4.83;100.00;98039.16;5038540;28;20580;-50
2022/04/28 06:18:43;;;;;;;8.77;8.17;;;;;;;4.93;100.00;98045.34;5021235;28;20721;-52
2022/04/28 06:21:11;;;;;;;8.03;7.43;;;;;;;5.17;100.00;98045.09;5058842;28;20289;-58
2022/04/28 06:23:40;;;;;;;9.07;8.20;;;;;;;5.62;100.00;98048.38;5045605;28;20210;-55
2022/04/28 06:26:09;;;;;;;10.30;9.40;;;;;;;6.03;100.00;98053.69;5049225;28;20455;-55
2022/04/28 06:28:37;;;;;;;8.63;7.93;;;;;;;6.19;100.00;98053.16;5063312;28;20209;-56
2022/04/28 06:31:05;;;;;;;9.68;8.88;;;;;;;6.47;100.00;98048.09;5060134;28;20539;-56
2022/04/28 06:33:34;;;;;;;8.90;8.30;;;;;;;6.22;100.00;98055.53;5013759;28;20221;-53
2022/04/28 06:36:02;;;;;;;9.25;8.55;;;;;;;6.47;100.00;98058.63;5065158;28;20538;-57
2022/04/28 06:38:30;;;;;;;8.67;7.87;;;;;;;6.70;100.00;98051.31;5042346;28;20230;-56
2022/04/28 06:41:00;;;;;;;8.00;7.30;;;;;;;7.04;100.00;98047.44;5044018;28;20210;-56
2022/04/28 06:43:28;;;;;;;7.63;7.07;;;;;;;7.46;100.00;98052.38;5047046;28;20720;-51
2022/04/28 06:46:15;;;;;;;8.85;8.05;;;;;;;7.57;100.00;98053.97;5060044;28;20450;-53
2022/04/28 06:48:43;;;;;;;8.68;8.07;;;;;;;7.62;100.00;98048.28;5048456;28;20479;-55
2022/04/28 06:51:11;;;;;;;7.88;7.28;;;;;;;7.53;100.00;98053.44;5020081;28;20457;-56
2022/04/28 06:53:39;;;;;;;7.53;6.93;;;;;;;7.73;100.00;98047.28;5060557;28;20203;-57
2022/04/28 06:56:09;;;;;;;7.27;6.67;;;;;;;7.57;100.00;98047.88;5047438;28;20218;-55
2022/04/28 06:58:37;;;;;;;8.32;7.72;;;;;;;7.64;100.00;98054.25;5050473;28;20460;-55
2022/04/28 07:01:06;;;;;;;7.23;6.73;;;;;;;7.73;100.00;98047.28;5061911;28;20753;-57
2022/04/28 07:03:34;;;;;;;8.13;7.53;;;;;;;7.93;100.00;98050.69;5047271;28;20933;-52
2022/04/28 07:06:03;;;;;;;7.70;7.10;;;;;;;8.15;100.00;98046.00;5025407;28;20289;-56
2022/04/28 07:08:31;;;;;;;7.33;6.80;;;;;;;8.35;100.00;98054.63;5061687;28;20431;-54
2022/04/28 07:10:59;;;;;;;7.13;6.63;;;;;;;8.39;100.00;98056.81;5050067;28;20293;-53
2022/04/28 07:13:29;;;;;;;7.13;6.60;;;;;;;8.82;100.00;98058.91;5032395;28;20221;-57
2022/04/28 07:16:03;;;;;;;7.30;6.80;;;;;;;8.86;100.00;98057.63;5062251;28;20260;-54
2022/04/28 07:18:31;;;;;;;7.37;6.87;;;;;;;9.18;100.00;98064.19;5061483;28;20202;-57
2022/04/28 07:21:01;;;;;;;7.40;6.80;;;;;;;9.15;100.00;98061.03;5038479;28;20233;-59
2022/04/28 07:23:36;;;;;;;6.77;6.27;;;;;;;9.35;100.00;98062.47;5059080;28;20210;-54
2022/04/28 07:26:04;;;;;;;7.37;6.87;;;;;;;9.56;100.00;98067.41;5048194;28;20226;-56
2022/04/28 07:28:33;;;;;;;7.27;6.77;;;;;;;9.81;100.00;98062.28;5050279;28;20313;-57
2022/04/28 07:31:01;;;;;;;7.07;6.57;;;;;;;10.05;100.00;98063.41;5063290;28;20202;-58
2022/04/28 07:33:30;;;;;;;6.20;5.70;;;;;;;9.87;100.00;98067.94;5066846;28;20353;-55
2022/04/28 07:35:58;;;;;;;7.30;6.43;;;;;;;10.16;100.00;98064.09;5053201;28;20716;-55
2022/04/28 07:38:26;;;;;;;7.73;7.13;;;;;;;10.15;100.00;98068.53;5022150;28;20799;-55
2022/04/28 07:40:55;;;;;;;7.57;6.87;;;;;;;10.24;100.00;98070.25;5047107;28;20325;-55
2022/04/28 07:43:25;;;;;;;6.67;6.17;;;;;;;10.38;100.00;98078.56;5042457;28;20720;-53
2022/04/28 07:45:54;;;;;;;7.70;7.20;;;;;;;10.49;100.00;98072.19;5066833;28;20233;-59
2022/04/28 07:48:23;;;;;;;7.80;7.07;;;;;;;10.49;100.00;98077.47;5063717;28;20602;-55
2022/04/28 07:50:51;;;;;;;7.90;7.10;;;;;;;10.82;100.00;98080.22;5067979;28;20233;-57
2022/04/28 07:53:19;;;;;;;8.30;7.50;;;;;;;10.96;100.00;98073.41;5006484;28;20279;-55
2022/04/28 07:56:10;;;;;;;7.47;6.80;;;;;;;10.94;100.00;98078.88;5046450;28;20716;-59
2022/04/28 07:58:36;;;;;;;7.87;7.27;;;;;;;11.02;100.00;98078.06;5049758;28;20210;-58
2022/04/28 08:01:06;;;;;;;7.50;6.97;;;;;;;11.07;100.00;98074.91;5060872;28;20224;-57
2022/04/28 08:03:34;;;;;;;6.60;6.07;;;;;;;11.44;100.00;98070.91;5064095;28;20194;-53
2022/04/28 08:06:03;;;;;;;6.97;6.37;;;;;;;11.73;100.00;98065.06;5064776;28;20294;-56
2022/04/28 08:08:31;;;;;;;7.13;6.53;;;;;;;11.75;100.00;98070.22;5004728;28;20893;-53
2022/04/28 08:10:59;;;;;;;6.33;5.77;;;;;;;11.93;100.00;98077.13;5061341;28;20293;-54
2022/04/28 08:13:28;;;;;;;6.47;5.97;;;;;;;12.13;100.00;98066.97;5038160;28;20210;-55
2022/04/28 08:15:57;;;;;;;7.00;6.03;;;;;;;12.38;100.00;98065.03;5052174;28;20238;-55
2022/04/28 08:18:29;;;;;;;6.57;5.97;;;;;;;12.56;100.00;98067.44;5059291;28;20206;-54
2022/04/28 08:20:58;;;;;;;7.10;6.40;;;;;;;12.63;100.00;98072.84;5067637;28;20230;-56
2022/04/28 08:23:26;;;;;;;7.40;6.10;;;;;;;12.89;100.00;98074.38;5006269;28;21828;-57
2022/04/28 08:25:54;;;;;;;6.93;6.33;;;;;;;12.89;100.00;98079.69;5064685;28;20546;-55
2022/04/28 08:28:22;;;;;;;6.37;5.77;;;;;;;13.03;100.00;98072.78;5045873;28;20207;-58
2022/04/28 08:30:51;;;;;;;5.80;5.40;;;;;;;13.07;100.00;98078.56;5047561;28;20981;-55
2022/04/28 08:33:20;;;;;;;7.47;6.80;;;;;;;13.26;100.00;98082.59;5058660;28;20202;-56
2022/04/28 08:35:49;;;;;;;6.77;6.17;;;;;;;13.39;100.00;98080.13;5063502;28;20659;-56
2022/04/28 08:38:18;;;;;;;6.43;5.83;;;;;;;13.60;100.00;98079.47;5048154;28;20488;-57
2022/04/28 08:40:47;;;;;;;6.13;5.53;;;;;;;13.95;100.00;98086.13;5027622;28;20222;-56
2022/04/28 08:43:16;;;;;;;7.00;6.30;;;;;;;13.99;88.04;98082.06;5048572;28;20300;-55
2022/04/28 08:48:48;;;;;;;6.93;6.32;;;;;;;14.36;70.96;98080.31;5065650;28;20483;-59
2022/04/28 08:51:18;;;;;;;6.32;5.78;;;;;;;14.46;67.54;98080.00;5058967;28;20545;-56
2022/04/28 08:53:48;;;;;;;6.37;5.87;;;;;;;14.71;61.56;98085.88;5050875;28;20222;-51
2022/04/28 08:56:16;;;;;;;6.40;5.80;;;;;;;14.63;63.33;98083.28;5021277;28;20217;-59
2022/04/28 08:58:45;;;;;;;6.00;5.50;;;;;;;14.69;65.39;98087.03;5051768;28;20217;-53
2022/04/28 09:01:13;;;;;;;6.90;5.70;;;;;;;14.86;63.27;98088.50;5032885;28;20218;-58
2022/04/28 09:03:42;;;;;;;6.10;5.50;;;;;;;14.80;58.74;98086.59;5067719;28;20463;-58
2022/04/28 09:06:36;;;;;;;6.90;6.30;;;;;;;14.92;55.66;98084.22;5064346;28;20449;-57
2022/04/28 09:09:06;;;;;;;6.73;6.00;;;;;;;14.92;53.96;98084.22;5048324;28;20241;-58
2022/04/28 09:11:37;;;;;;;5.80;5.30;;;;;;;14.95;58.34;98085.69;5029348;28;20360;-55
2022/04/28 09:14:13;;;;;;;6.13;5.57;;;;;;;15.18;63.59;98085.50;5046209;28;20211;-55
2022/04/28 09:16:46;;;;;;;10.67;6.47;;;;;;;15.11;51.92;98084.63;5050207;28;20213;-54
2022/04/28 09:19:16;;;;;;;5.47;4.97;;;;;;;15.29;48.00;98089.50;5062187;28;20527;-55
2022/04/28 09:21:46;;;;;;;4.93;4.53;;;;;;;15.17;43.50;98079.34;5065330;28;20432;-54
2022/04/28 09:24:14;;;;;;;9.90;5.83;;;;;;;14.63;46.17;98083.28;5047496;28;20565;-52
2022/04/28 09:26:43;;;;;;;3.87;3.57;;;;;;;14.56;42.03;98087.69;5026352;28;20314;-58
2022/04/28 09:29:13;;;;;;;4.13;3.78;;;;;;;15.06;41.43;98090.50;5045282;28;20883;-59
2022/04/28 09:31:43;;;;;;;4.50;4.10;;;;;;;15.45;39.66;98091.06;5046347;28;20563;-57
2022/04/28 09:34:31;;;;;;;4.70;4.40;;;;;;;15.33;39.48;98080.91;5067080;28;20784;-53
2022/04/28 09:37:01;;;;;;;5.93;5.43;;;;;;;16.14;38.88;98073.47;5065588;28;20529;-52
2022/04/28 09:42:31;;;;;;;6.10;5.60;;;;;;;17.25;37.10;98062.69;5014243;28;20458;-55
2022/04/28 09:45:00;;;;;;;5.27;4.87;;;;;;;17.45;35.91;98068.03;5031487;28;21241;-55
2022/04/28 09:47:30;;;;;;;6.30;5.90;;;;;;;17.54;35.00;98065.97;5052599;28;20254;-56
2022/04/28 09:49:59;;;;;;;6.50;6.00;;;;;;;17.41;33.57;98065.97;5052506;28;20237;-56
2022/04/28 09:52:32;;;;;;;6.28;5.70;;;;;;;17.34;34.49;98063.28;5065296;28;20531;-58
2022/04/28 09:55:02;;;;;;;6.65;6.15;;;;;;;17.24;34.86;98061.03;5049077;28;20549;-56
2022/04/28 09:57:31;;;;;;;6.45;5.97;;;;;;;17.62;37.32;98063.09;5059947;28;20449;-59
2022/04/28 10:00:00;;;;;;;6.35;5.72;;;;;;;17.50;39.22;98064.72;5022251;28;20599;-62
2022/04/28 10:02:29;;;;;;;5.10;4.70;;;;;;;17.46;38.44;98074.22;5067293;28;20268;-59
2022/04/28 10:05:03;;;;;;;5.50;5.07;;;;;;;17.22;38.69;98071.09;5038259;28;21645;-50
2022/04/28 10:07:36;;;;;;;5.63;5.22;;;;;;;17.21;39.78;98072.97;5059897;28;21240;-55
2022/04/28 10:10:06;;;;;;;6.63;6.03;;;;;;;16.52;43.78;98068.69;5046359;28;20791;-55
2022/04/28 10:12:34;;;;;;;6.10;5.60;;;;;;;16.28;42.40;98066.31;5050700;28;20297;-60
2022/04/28 10:15:05;;;;;;;6.13;5.63;;;;;;;16.21;43.86;98068.13;5036993;28;20779;-56
2022/04/28 10:17:36;;;;;;;6.03;5.57;;;;;;;16.32;45.69;98070.28;5045797;28;20466;-55
2022/04/28 10:20:09;;;;;;;5.60;5.20;;;;;;;16.15;43.98;98072.44;5047653;28;20499;-55
2022/04/28 10:23:02;;;;;;;4.87;4.57;;;;;;;16.33;44.37;98074.59;5060915;28;20876;-59
2022/04/28 10:34:11;;;;;;;5.87;5.10;;;;;;;15.37;43.37;98077.88;5006821;28;20232;-61
2022/04/28 10:36:53;;;;;;;5.93;5.43;;;;;;;15.54;43.65;98073.06;4988843;28;20295;-56
2022/04/28 10:39:41;;;;;;;6.07;5.20;;;;;;;15.31;44.42;98080.28;5006745;28;20259;-56
2022/04/28 10:42:14;;;;;;;5.80;5.20;;;;;;;15.09;43.34;98075.97;5002847;28;20224;-58
2022/04/28 10:44:51;;;;;;;5.30;4.93;;;;;;;15.13;44.70;98072.72;4963078;28;20242;-58
2022/04/28 10:47:24;;;;;;;5.27;4.77;;;;;;;15.37;46.40;98078.69;4988501;28;20219;-56
2022/04/28 10:49:55;;;;;;;5.60;5.15;;;;;;;15.68;43.59;98069.47;4989393;28;20661;-56
2022/04/28 10:52:25;;;;;;;5.33;4.90;;;;;;;16.10;44.89;98063.38;4990407;28;20629;-57
2022/04/28 10:54:55;;;;;;;6.23;5.73;;;;;;;16.29;41.40;98067.16;4980026;28;20958;-56
2022/04/28 10:57:31;;;;;;;5.97;5.47;;;;;;;16.16;40.08;98066.09;5007880;28;20291;-55
2022/04/28 11:00:00;;;;;;;5.80;5.40;;;;;;;16.22;41.64;98066.31;4961866;28;20611;-55
2022/04/28 11:02:49;;;;;;;6.25;5.85;;;;;;;15.89;41.62;98068.59;4988986;28;20592;-58
2022/04/28 11:05:38;;;;;;;5.37;5.03;;;;;;;15.98;43.07;98066.59;5022749;28;20206;-53
2022/04/28 11:08:25;;;;;;;5.33;4.97;;;;;;;16.44;39.79;98059.00;5029074;28;20219;-57
2022/04/28 11:11:12;;;;;;;5.00;4.70;;;;;;;16.16;39.83;98071.44;5040794;28;20254;-57
2022/04/28 11:13:49;;;;;;;6.10;5.57;;;;;;;16.09;41.47;98064.38;5049995;28;20202;-53
2022/04/28 11:16:17;;;;;;;4.90;4.60;;;;;;;16.49;40.66;98070.75;5035654;28;20423;-53
2022/04/28 11:18:46;;;;;;;5.55;5.15;;;;;;;16.59;40.07;98070.34;5032678;28;20979;-59
2022/04/28 11:21:15;;;;;;;5.70;5.30;;;;;;;16.63;39.41;98066.25;5040872;28;20951;-54
2022/04/28 11:23:46;;;;;;;5.77;5.37;;;;;;;16.46;40.17;98065.78;5034889;28;20305;-56
2022/04/28 11:26:16;;;;;;;5.50;5.10;;;;;;;16.24;40.52;98067.75;5045636;28;20287;-53
2022/04/28 11:28:45;;;;;;;5.17;4.77;;;;;;;16.07;41.62;98067.25;5035585;28;20440;-58
2022/04/28 11:31:16;;;;;;;5.00;4.70;;;;;;;16.36;41.99;98065.34;4999154;28;20208;-56
2022/04/28 11:33:46;;;;;;;5.00;4.50;;;;;;;16.64;42.07;98061.72;5020434;28;20510;-59
2022/04/28 11:36:24;;;;;;;5.60;5.20;;;;;;;17.05;40.64;98068.84;5016957;28;20534;-57
2022/04/28 11:38:54;;;;;;;5.53;5.13;;;;;;;17.89;38.98;98059.53;5010458;28;21219;-60
2022/04/28 11:41:42;;;;;;;5.40;5.00;;;;;;;18.74;39.88;98063.16;5020765;28;20223;-56
2022/04/28 11:44:12;;;;;;;5.60;4.77;;;;;;;19.12;34.07;98058.78;5039375;28;20302;-56
2022/04/28 11:46:49;;;;;;;5.07;4.72;;;;;;;19.05;33.34;98067.72;4996407;28;20377;-58
2022/04/28 11:49:18;;;;;;;4.37;4.03;;;;;;;18.29;31.98;98063.97;5028523;28;20974;-58
2022/04/28 11:51:47;;;;;;;5.10;4.70;;;;;;;18.15;33.36;98063.19;5020607;28;20211;-59
2022/04/28 11:54:23;;;;;;;4.87;4.40;;;;;;;17.84;35.11;98059.34;5016570;28;20291;-58
2022/04/28 11:57:08;;;;;;;5.60;3.97;;;;;;;17.61;34.94;98064.09;5019217;28;20362;-61
2022/04/28 11:59:37;;;;;;;4.97;4.57;;;;;;;17.85;35.63;98069.84;5039396;28;20222;-55
2022/04/28 12:02:24;;;;;;;4.67;4.37;;;;;;;17.64;36.22;98063.72;5000421;28;20253;-52
2022/04/28 12:04:52;;;;;;;5.90;4.53;;;;;;;17.28;37.23;98058.75;5022569;28;20326;-58
2022/04/28 12:07:21;;;;;;;5.30;4.80;;;;;;;17.45;35.95;98060.00;5028590;28;20257;-56
2022/04/28 12:15:39;;;;;;;4.57;4.17;;;;;;;18.18;36.68;98060.91;4993932;28;20643;-58
2022/04/28 12:20:58;;;;;;;5.37;4.97;;;;;;;18.47;39.35;98066.78;4987485;28;20231;-54
2022/04/28 12:23:30;;;;;;;4.67;4.37;;;;;;;18.33;37.62;98059.81;4979648;28;20230;-54
2022/04/28 12:26:00;;;;;;;5.35;4.85;;;;;;;18.45;40.82;98059.97;4993417;28;20540;-55